createdAt,value
2019-05-22T00:01:12.410Z,88.48
2019-05-22T00:04:14.398Z,88.03
2019-05-22T00:06:47.881Z,87.88
2019-05-22T00:09:35.027Z,87.88
2019-05-22T00:12:12.065Z,88.02
2019-05-22T00:15:04.660Z,87.94
2019-05-22T00:17:38.265Z,87.98
2019-05-22T00:20:14.690Z,87.94
2019-05-22T00:22:48.751Z,88.01
2019-05-22T00:25:26.947Z,88.07
2019-05-22T00:28:01.106Z,88.38
2019-05-22T00:30:48.142Z,88.35
2019-05-22T00:33:39.543Z,88.47
2019-05-22T00:36:14.327Z,88.61
2019-05-22T00:38:48.005Z,88.61
2019-05-22T00:41:23.485Z,88.44
2019-05-22T00:43:57.392Z,88.58
2019-05-22T00:46:30.625Z,88.72
2019-05-22T00:49:07.328Z,88.97
2019-05-22T00:52:14.691Z,89.16
2019-05-22T00:54:57.430Z,89.22
2019-05-22T00:57:36.282Z,89.29
2019-05-22T01:00:21.979Z,89.26
2019-05-22T01:03:19.469Z,89.44
2019-05-22T01:05:55.056Z,89.72
2019-05-22T01:08:29.102Z,90.08
2019-05-22T01:11:04.249Z,90.13
2019-05-22T01:13:38.125Z,89.90
2019-05-22T01:16:21.755Z,89.81
2019-05-22T01:18:57.792Z,89.85
2019-05-22T01:21:50.632Z,89.90
2019-05-22T01:24:36.174Z,89.57
2019-05-22T01:27:09.842Z,89.40
2019-05-22T01:29:43.922Z,89.35
2019-05-22T01:32:24.664Z,89.11
2019-05-22T01:35:20.352Z,89.07
2019-05-22T01:37:58.124Z,89.04
2019-05-22T01:40:53.772Z,89.00
2019-05-22T01:43:28.708Z,88.91
2019-05-22T01:46:03.378Z,88.88
2019-05-22T01:48:46.191Z,88.61
2019-05-22T01:51:28.696Z,88.47
2019-05-22T01:54:04.080Z,88.67
2019-05-22T01:56:39.744Z,88.67
2019-05-22T01:59:16.125Z,88.53
2019-05-22T02:01:59.344Z,88.69
2019-05-22T02:04:34.266Z,88.71
2019-05-22T02:07:09.879Z,88.89
2019-05-22T02:09:46.130Z,89.21
2019-05-22T02:12:36.654Z,89.20
2019-05-22T02:15:11.168Z,88.99
2019-05-22T02:17:45.394Z,89.12
2019-05-22T02:20:19.798Z,89.02
2019-05-22T02:22:54.768Z,89.01
2019-05-22T02:25:38.608Z,88.90
2019-05-22T02:28:15.260Z,88.98
2019-05-22T02:30:49.537Z,89.22
2019-05-22T02:33:25.043Z,89.29
2019-05-22T02:36:21.724Z,89.23
2019-05-22T02:40:22.749Z,89.21
2019-05-22T02:42:57.104Z,89.21
2019-05-22T02:45:30.551Z,89.21
2019-05-22T02:48:06.420Z,89.13
2019-05-22T02:50:50.325Z,88.73
2019-05-22T02:53:40.362Z,87.97
2019-05-22T02:56:14.109Z,87.64
2019-05-22T02:58:51.969Z,87.60
2019-05-22T03:01:25.422Z,87.88
2019-05-22T03:03:59.370Z,87.91
2019-05-22T03:06:34.874Z,88.00
2019-05-22T03:09:23.659Z,87.95
2019-05-22T03:12:04.242Z,87.58
2019-05-22T03:14:40.066Z,87.43
2019-05-22T03:17:27.649Z,87.09
2019-05-22T03:20:04.462Z,86.89
2019-05-22T03:22:44.554Z,86.93
2019-05-22T03:25:18.237Z,87.12
2019-05-22T03:28:02.255Z,87.00
2019-05-22T03:30:45.444Z,87.01
2019-05-22T03:33:19.081Z,86.56
2019-05-22T03:36:01.577Z,86.19
2019-05-22T03:38:47.981Z,85.97
2019-05-22T03:41:30.545Z,86.06
2019-05-22T03:44:05.389Z,86.32
2019-05-22T03:46:44.774Z,86.59
2019-05-22T03:49:30.000Z,86.67
2019-05-22T03:52:06.410Z,87.14
2019-05-22T03:54:40.617Z,87.27
2019-05-22T03:57:25.877Z,87.51
2019-05-22T04:00:02.329Z,87.53
2019-05-22T04:02:36.455Z,86.96
2019-05-22T04:05:10.951Z,86.83
2019-05-22T04:07:57.518Z,86.86
2019-05-22T04:10:34.639Z,86.82
2019-05-22T04:13:19.380Z,86.80
2019-05-22T04:15:53.105Z,86.58
2019-05-22T04:18:28.552Z,86.98
2019-05-22T04:21:11.214Z,87.32
2019-05-22T04:23:45.299Z,87.47
2019-05-22T04:26:28.928Z,87.71
2019-05-22T04:29:03.707Z,87.52
2019-05-22T04:31:52.512Z,87.56
2019-05-22T04:34:26.470Z,87.94
2019-05-22T04:37:13.793Z,88.25
2019-05-22T04:40:16.914Z,88.50
2019-05-22T04:42:51.423Z,88.62
2019-05-22T04:45:34.921Z,89.02
2019-05-22T04:48:08.957Z,89.17
2019-05-22T04:50:42.542Z,89.51
2019-05-22T04:53:16.925Z,89.57
2019-05-22T04:55:50.677Z,89.42
2019-05-22T04:58:30.532Z,89.56
2019-05-22T05:01:03.915Z,89.59
2019-05-22T05:03:48.150Z,89.40
2019-05-22T05:06:23.985Z,89.47
2019-05-22T05:09:12.238Z,89.67
2019-05-22T05:11:45.542Z,89.94
2019-05-22T05:14:31.990Z,90.03
2019-05-22T05:17:08.612Z,90.26
2019-05-22T05:19:42.216Z,90.40
2019-05-22T05:22:19.030Z,89.91
2019-05-22T05:24:55.568Z,89.64
2019-05-22T05:27:27.578Z,89.49
2019-05-22T05:30:10.199Z,89.70
2019-05-22T05:32:52.831Z,89.64
2019-05-22T05:35:26.935Z,89.82
2019-05-22T05:38:11.727Z,89.97
2019-05-22T05:40:46.302Z,90.18
2019-05-22T05:43:29.179Z,90.00
2019-05-22T05:46:03.472Z,90.06
2019-05-22T05:48:37.060Z,90.13
2019-05-22T05:51:29.422Z,89.88
2019-05-22T05:54:12.402Z,89.68
2019-05-22T05:56:49.796Z,89.49
2019-05-22T05:59:24.653Z,89.07
2019-05-22T06:02:09.360Z,88.40
2019-05-22T06:04:43.202Z,88.06
2019-05-22T06:07:24.265Z,88.01
2019-05-22T06:10:34.471Z,88.18
2019-05-22T06:13:07.867Z,88.08
2019-05-22T06:16:24.350Z,88.11
2019-05-22T06:18:58.691Z,87.92
2019-05-22T06:21:33.591Z,88.29
2019-05-22T06:24:28.074Z,88.15
2019-05-22T06:27:19.405Z,88.00
2019-05-22T06:29:57.339Z,87.96
2019-05-22T06:33:27.460Z,87.34
2019-05-22T06:36:04.691Z,87.11
2019-05-22T06:39:13.839Z,87.05
2019-05-22T06:41:48.770Z,87.02
2019-05-22T06:44:39.046Z,86.76
2019-05-22T06:47:25.829Z,86.43
2019-05-22T06:49:59.504Z,86.37
2019-05-22T06:52:32.493Z,86.33
2019-05-22T06:55:06.926Z,85.70
2019-05-22T06:57:40.422Z,85.80
2019-05-22T07:00:21.658Z,85.41
2019-05-22T07:02:55.167Z,85.16
2019-05-22T07:05:29.347Z,85.16
2019-05-22T07:08:03.888Z,85.38
2019-05-22T07:10:38.232Z,85.71
2019-05-22T07:13:22.998Z,85.74
2019-05-22T07:15:59.274Z,85.71
2019-05-22T07:18:33.078Z,86.16
2019-05-22T07:21:07.985Z,86.55
2019-05-22T07:23:42.539Z,86.58
2019-05-22T07:26:25.364Z,86.73
2019-05-22T07:29:17.111Z,86.66
2019-05-22T07:32:02.973Z,86.98
2019-05-22T07:34:36.282Z,86.51
2019-05-22T07:37:19.476Z,86.05
2019-05-22T07:39:53.038Z,86.30
2019-05-22T07:42:27.419Z,86.39
2019-05-22T07:45:00.946Z,86.72
2019-05-22T07:47:36.999Z,86.57
2019-05-22T07:50:11.367Z,86.28
2019-05-22T07:52:45.663Z,85.94
2019-05-22T07:55:29.545Z,86.31
2019-05-22T07:58:11.931Z,86.52
2019-05-22T08:00:57.604Z,86.28
2019-05-22T08:03:45.608Z,86.11
2019-05-22T08:06:19.994Z,85.78
2019-05-22T08:09:11.378Z,84.39
2019-05-22T08:11:45.233Z,84.51
2019-05-22T08:14:19.700Z,84.74
2019-05-22T08:16:54.164Z,84.47
2019-05-22T08:19:28.429Z,84.79
2019-05-22T08:22:07.244Z,84.82
2019-05-22T08:24:36.286Z,84.75
2019-05-22T08:27:10.081Z,84.84
2019-05-22T08:29:43.535Z,84.99
2019-05-22T08:32:18.514Z,84.94
2019-05-22T08:34:52.002Z,85.04
2019-05-22T08:37:30.332Z,85.04
2019-05-22T08:40:04.914Z,84.69
2019-05-22T08:42:48.490Z,83.74
2019-05-22T08:45:23.466Z,83.16
2019-05-22T08:48:09.248Z,82.80
2019-05-22T08:50:54.565Z,82.64
2019-05-22T08:53:28.283Z,82.65
2019-05-22T08:56:01.922Z,82.56
2019-05-22T08:58:36.680Z,82.69
2019-05-22T09:01:19.005Z,82.75
2019-05-22T09:03:52.491Z,82.64
2019-05-22T09:06:25.729Z,82.68
2019-05-22T09:08:59.416Z,81.92
2019-05-22T09:11:32.557Z,81.80
2019-05-22T09:14:05.757Z,81.92
2019-05-22T09:16:48.451Z,81.42
2019-05-22T09:19:22.868Z,81.21
2019-05-22T09:21:57.247Z,80.45
2019-05-22T09:24:47.852Z,80.07
2019-05-22T09:27:34.526Z,80.28
2019-05-22T09:30:17.291Z,79.78
2019-05-22T09:32:59.859Z,80.14
2019-05-22T09:35:33.363Z,80.99
2019-05-22T09:38:06.652Z,80.31
2019-05-22T09:40:39.869Z,79.82
2019-05-22T09:43:13.359Z,79.78
2019-05-22T09:45:46.947Z,79.06
2019-05-22T09:48:21.188Z,79.02
2019-05-22T09:50:55.529Z,78.77
2019-05-22T09:53:41.641Z,78.84
2019-05-22T09:56:15.237Z,79.21
2019-05-22T09:58:48.500Z,79.67
2019-05-22T10:01:30.401Z,79.73
2019-05-22T10:04:03.580Z,80.25
2019-05-22T10:06:37.059Z,79.56
2019-05-22T10:09:10.640Z,78.60
2019-05-22T10:11:44.193Z,78.38
2019-05-22T10:14:25.994Z,78.25
2019-05-22T10:16:59.366Z,78.21
2019-05-22T10:19:43.869Z,77.82
2019-05-22T10:22:20.062Z,77.67
2019-05-22T10:25:12.099Z,78.50
2019-05-22T10:27:39.328Z,77.62
2019-05-22T10:30:24.803Z,77.37
2019-05-22T10:32:57.959Z,77.00
2019-05-22T10:35:33.547Z,75.97
2019-05-22T10:38:07.446Z,75.25
2019-05-22T10:40:40.973Z,74.58
2019-05-22T10:43:14.523Z,75.61
2019-05-22T10:45:48.465Z,75.12
2019-05-22T10:48:21.692Z,75.36
2019-05-22T10:50:56.074Z,75.15
2019-05-22T10:53:39.210Z,75.08
2019-05-22T10:56:22.962Z,75.49
2019-05-22T10:59:07.515Z,74.61
2019-05-22T11:01:41.891Z,73.43
2019-05-22T11:04:19.290Z,73.16
2019-05-22T11:07:01.891Z,72.49
2019-05-22T11:09:48.303Z,72.57
2019-05-22T11:12:22.060Z,72.78
2019-05-22T11:14:56.076Z,72.39
2019-05-22T11:17:45.797Z,73.15
2019-05-22T11:20:19.822Z,72.26
2019-05-22T11:22:53.908Z,72.21
2019-05-22T11:25:27.250Z,70.65
2019-05-22T11:28:00.828Z,71.37
2019-05-22T11:30:34.742Z,72.00
2019-05-22T11:33:23.041Z,72.04
2019-05-22T11:35:56.589Z,73.37
2019-05-22T11:38:30.220Z,73.99
2019-05-22T11:41:04.663Z,72.22
2019-05-22T11:43:47.156Z,72.38
2019-05-22T11:46:22.210Z,73.26
2019-05-22T11:48:55.844Z,72.54
2019-05-22T11:51:29.837Z,72.38
2019-05-22T11:54:14.805Z,71.12
2019-05-22T11:56:48.774Z,70.59
2019-05-22T11:59:22.785Z,71.37
2019-05-22T12:01:56.368Z,70.11
2019-05-22T12:04:46.554Z,71.18
2019-05-22T12:07:21.706Z,71.09
2019-05-22T12:10:04.416Z,71.27
2019-05-22T12:12:38.032Z,70.75
2019-05-22T12:15:13.233Z,69.56
2019-05-22T12:17:46.975Z,70.20
2019-05-22T12:20:31.197Z,69.52
2019-05-22T12:23:04.779Z,69.98
2019-05-22T12:25:38.848Z,69.49
2019-05-22T12:28:21.183Z,69.51
2019-05-22T12:30:56.337Z,68.83
2019-05-22T12:33:31.088Z,67.80
2019-05-22T12:36:06.556Z,67.22
2019-05-22T12:38:40.541Z,68.94
2019-05-22T12:41:15.673Z,67.69
2019-05-22T12:43:49.683Z,68.28
2019-05-22T12:46:32.943Z,66.73
2019-05-22T12:49:09.289Z,66.45
2019-05-22T12:51:52.506Z,66.58
2019-05-22T12:54:46.998Z,66.56
2019-05-22T12:57:15.969Z,66.81
2019-05-22T12:59:49.630Z,64.70
2019-05-22T13:02:24.651Z,63.07
2019-05-22T13:04:59.718Z,63.24
2019-05-22T13:07:31.621Z,62.80
2019-05-22T13:10:07.098Z,61.50
2019-05-22T13:12:41.178Z,59.55
2019-05-22T13:15:30.951Z,60.03
2019-05-22T13:18:05.877Z,60.19
2019-05-22T13:20:44.001Z,58.36
2019-05-22T13:23:17.584Z,59.49
2019-05-22T13:25:51.608Z,59.99
2019-05-22T13:28:28.597Z,58.88
2019-05-22T13:31:02.903Z,58.88
2019-05-22T13:33:47.683Z,58.44
2019-05-22T13:36:21.134Z,57.28
2019-05-22T13:38:55.525Z,58.75
2019-05-22T13:41:46.201Z,59.42
2019-05-22T13:44:30.045Z,60.18
2019-05-22T13:47:04.674Z,59.68
2019-05-22T13:49:47.449Z,60.27
2019-05-22T13:52:30.087Z,60.16
2019-05-22T13:55:13.703Z,61.12
2019-05-22T13:57:57.289Z,59.34
2019-05-22T14:00:30.961Z,59.11
2019-05-22T14:03:04.918Z,59.88
2019-05-22T14:05:39.228Z,60.98
2019-05-22T14:08:14.653Z,58.77
2019-05-22T14:10:50.193Z,56.28
2019-05-22T14:13:25.900Z,55.78
2019-05-22T14:16:00.090Z,55.78
2019-05-22T14:18:33.682Z,55.24
2019-05-22T14:21:07.259Z,53.62
2019-05-22T14:23:41.844Z,53.81
2019-05-22T14:26:15.658Z,52.56
2019-05-22T14:29:01.116Z,52.92
2019-05-22T14:31:35.073Z,52.34
2019-05-22T14:34:17.561Z,55.91
2019-05-22T14:36:52.101Z,56.16
2019-05-22T14:39:26.766Z,55.93
2019-05-22T14:42:10.534Z,56.11
2019-05-22T14:44:43.695Z,55.82
2019-05-22T14:47:17.206Z,55.80
2019-05-22T14:49:51.059Z,57.27
2019-05-22T14:52:24.642Z,54.89
2019-05-22T14:54:58.410Z,54.52
2019-05-22T14:57:31.809Z,53.41
2019-05-22T15:00:06.313Z,53.72
2019-05-22T15:02:57.241Z,56.02
2019-05-22T15:05:28.967Z,55.73
2019-05-22T15:08:02.498Z,55.73
2019-05-22T15:10:36.728Z,54.26
2019-05-22T15:13:19.613Z,54.94
2019-05-22T15:16:01.964Z,55.49
2019-05-22T15:18:50.563Z,53.05
2019-05-22T15:21:25.000Z,54.46
2019-05-22T15:23:58.304Z,54.33
2019-05-22T15:26:40.827Z,52.20
2019-05-22T15:29:16.529Z,52.71
2019-05-22T15:31:54.352Z,52.92
2019-05-22T15:34:29.554Z,53.37
2019-05-22T15:37:06.865Z,53.37
2019-05-22T15:39:56.880Z,53.58
2019-05-22T15:42:49.306Z,53.58
2019-05-22T15:45:56.636Z,53.19
2019-05-22T15:48:34.838Z,54.78
2019-05-22T15:51:10.061Z,54.78
2019-05-22T15:53:46.190Z,53.91
2019-05-22T15:56:33.176Z,53.91
2019-05-22T15:59:20.299Z,53.55
2019-05-22T16:01:54.086Z,53.89
2019-05-22T16:04:41.324Z,55.76
2019-05-22T16:07:17.920Z,55.68
2019-05-22T16:09:54.539Z,54.34
2019-05-22T16:12:28.312Z,54.71
2019-05-22T16:15:05.793Z,57.03
2019-05-22T16:17:42.610Z,57.03
2019-05-22T16:20:29.292Z,56.36
2019-05-22T16:23:03.626Z,56.35
2019-05-22T16:25:40.033Z,55.40
2019-05-22T16:28:23.406Z,55.64
2019-05-22T16:30:57.379Z,54.57
2019-05-22T16:33:32.585Z,55.69
2019-05-22T16:36:07.532Z,54.50
2019-05-22T16:38:44.057Z,54.50
2019-05-22T16:41:17.875Z,54.67
2019-05-22T16:43:51.876Z,53.51
2019-05-22T16:46:28.080Z,52.33
2019-05-22T16:49:01.704Z,50.48
2019-05-22T16:51:35.852Z,52.03
2019-05-22T16:54:10.010Z,53.03
2019-05-22T16:56:42.961Z,52.64
2019-05-22T16:59:16.520Z,52.58
2019-05-22T17:02:00.038Z,52.60
2019-05-22T17:04:25.706Z,52.51
2019-05-22T17:07:11.368Z,50.75
2019-05-22T17:09:44.752Z,50.66
2019-05-22T17:12:20.293Z,51.03
2019-05-22T17:14:54.898Z,52.14
2019-05-22T17:17:39.495Z,53.53
2019-05-22T17:20:13.433Z,54.86
2019-05-22T17:23:01.661Z,54.52
2019-05-22T17:25:46.196Z,54.89
2019-05-22T17:28:19.915Z,54.75
2019-05-22T17:31:03.942Z,54.75
2019-05-22T17:33:37.462Z,54.38
2019-05-22T17:36:11.814Z,53.88
2019-05-22T17:38:46.963Z,52.69
2019-05-22T17:41:21.610Z,51.96
2019-05-22T17:43:55.409Z,48.98
2019-05-22T17:46:30.290Z,48.08
2019-05-22T17:49:04.220Z,47.42
2019-05-22T17:51:37.844Z,46.55
2019-05-22T17:54:11.217Z,47.40
2019-05-22T17:56:45.632Z,47.33
2019-05-22T17:59:31.531Z,47.21
2019-05-22T18:02:15.517Z,49.25
2019-05-22T18:04:50.063Z,52.33
2019-05-22T18:07:23.902Z,53.67
2019-05-22T18:09:57.773Z,55.35
2019-05-22T18:12:31.405Z,56.74
2019-05-22T18:15:05.630Z,58.82
2019-05-22T18:17:48.726Z,58.96
2019-05-22T18:20:42.274Z,59.14
2019-05-22T18:23:18.929Z,60.34
2019-05-22T18:25:52.128Z,60.79
2019-05-22T18:28:25.887Z,60.80
2019-05-22T18:30:59.130Z,61.10
2019-05-22T18:33:32.414Z,61.75
2019-05-22T18:36:06.025Z,62.07
2019-05-22T18:38:39.784Z,62.81
2019-05-22T18:41:13.485Z,63.78
2019-05-22T18:43:46.660Z,63.27
2019-05-22T18:46:21.744Z,64.71
2019-05-22T18:49:04.370Z,65.22
2019-05-22T18:51:46.660Z,64.59
2019-05-22T18:54:21.127Z,65.81
2019-05-22T18:56:54.828Z,66.46
2019-05-22T18:59:27.833Z,66.24
2019-05-22T19:02:09.979Z,66.61
2019-05-22T19:04:43.781Z,66.90
2019-05-22T19:07:22.036Z,67.35
2019-05-22T19:10:21.337Z,68.19
2019-05-22T19:13:10.156Z,68.69
2019-05-22T19:15:43.858Z,68.74
2019-05-22T19:18:17.147Z,69.28
2019-05-22T19:20:50.795Z,69.87
2019-05-22T19:23:23.828Z,70.23
2019-05-22T19:26:07.555Z,71.20
2019-05-22T19:28:44.230Z,71.60
2019-05-22T19:31:18.367Z,71.66
2019-05-22T19:34:04.726Z,72.29
2019-05-22T19:36:38.029Z,72.91
2019-05-22T19:39:23.603Z,73.35
2019-05-22T19:42:04.243Z,73.76
2019-05-22T19:44:46.104Z,74.33
2019-05-22T19:47:40.153Z,74.87
2019-05-22T19:50:33.812Z,75.24
2019-05-22T19:53:18.830Z,75.21
2019-05-22T19:55:48.087Z,75.26
2019-05-22T19:58:39.277Z,75.67
2019-05-22T20:01:13.355Z,76.30
2019-05-22T20:03:48.590Z,76.69
2019-05-22T20:06:31.231Z,76.81
2019-05-22T20:09:08.006Z,77.14
2019-05-22T20:11:41.115Z,77.33
2019-05-22T20:14:59.427Z,77.25
2019-05-22T20:17:29.411Z,77.23
2019-05-22T20:20:06.619Z,77.37
2019-05-22T20:22:42.439Z,77.41
2019-05-22T20:25:37.288Z,77.94
2019-05-22T20:28:15.090Z,78.52
2019-05-22T20:31:01.836Z,78.90
2019-05-22T20:33:56.509Z,79.38
2019-05-22T20:37:11.394Z,79.62
2019-05-22T20:39:44.825Z,79.74
2019-05-22T20:42:34.721Z,80.02
2019-05-22T20:45:27.064Z,79.90
2019-05-22T20:48:12.635Z,79.99
2019-05-22T20:51:11.661Z,80.50
2019-05-22T20:53:54.368Z,80.72
2019-05-22T20:56:41.403Z,80.88
2019-05-22T20:59:16.049Z,80.94
2019-05-22T21:02:00.851Z,80.85
2019-05-22T21:04:43.329Z,80.97
2019-05-22T21:07:20.495Z,81.05
2019-05-22T21:10:00.210Z,81.42
2019-05-22T21:12:35.895Z,81.45
2019-05-22T21:15:31.604Z,81.57
2019-05-22T21:18:23.377Z,81.64
2019-05-22T21:20:59.859Z,81.70
2019-05-22T21:23:33.699Z,81.79
2019-05-22T21:26:09.762Z,81.87
2019-05-22T21:29:01.626Z,81.86
2019-05-22T21:31:35.950Z,81.83
2019-05-22T21:34:09.934Z,81.76
2019-05-22T21:36:43.331Z,81.61
2019-05-22T21:39:16.939Z,81.43
2019-05-22T21:41:50.569Z,81.59
2019-05-22T21:44:23.763Z,81.92
2019-05-22T21:47:12.980Z,82.05
2019-05-22T21:49:58.545Z,82.30
2019-05-22T21:52:32.962Z,82.40
2019-05-22T21:55:20.021Z,82.26
2019-05-22T21:58:09.802Z,81.96
2019-05-22T22:01:14.000Z,82.13
2019-05-22T22:03:51.776Z,82.24
2019-05-22T22:06:42.209Z,82.23
2019-05-22T22:09:17.662Z,82.27
2019-05-22T22:12:00.667Z,81.97
2019-05-22T22:14:35.818Z,82.04
2019-05-22T22:17:10.190Z,82.19
2019-05-22T22:19:56.235Z,82.06
2019-05-22T22:22:41.739Z,82.14
2019-05-22T22:25:16.847Z,82.32
2019-05-22T22:28:00.663Z,82.75
2019-05-22T22:30:44.405Z,82.93
2019-05-22T22:33:22.534Z,83.01
2019-05-22T22:35:56.969Z,82.91
2019-05-22T22:38:42.100Z,82.69
2019-05-22T22:41:16.763Z,82.29
2019-05-22T22:43:50.072Z,81.95
2019-05-22T22:46:32.411Z,82.24
2019-05-22T22:49:06.519Z,82.75
2019-05-22T22:51:51.584Z,83.25
2019-05-22T22:54:26.981Z,83.46
2019-05-22T22:57:01.266Z,83.41
2019-05-22T22:59:44.384Z,83.35
2019-05-22T23:02:30.840Z,83.21
2019-05-22T23:05:07.412Z,82.99
2019-05-22T23:07:51.177Z,82.76
2019-05-22T23:10:25.899Z,82.71
2019-05-22T23:12:59.096Z,82.55
2019-05-22T23:15:32.686Z,82.43
2019-05-22T23:18:06.723Z,82.52
2019-05-22T23:20:39.230Z,82.80
2019-05-22T23:23:10.767Z,82.96
2019-05-22T23:25:45.897Z,82.84
2019-05-22T23:28:33.634Z,82.60
2019-05-22T23:31:06.853Z,82.46
2019-05-22T23:33:51.709Z,82.32
2019-05-22T23:36:25.650Z,81.96
2019-05-22T23:39:00.674Z,82.00
2019-05-22T23:41:37.124Z,81.98
2019-05-22T23:44:23.389Z,82.06
2019-05-22T23:46:57.539Z,82.33
2019-05-22T23:49:31.715Z,82.32
2019-05-22T23:52:20.321Z,82.95
2019-05-22T23:54:54.083Z,82.90
2019-05-22T23:57:28.276Z,82.93
